Date,TemperatureHighF,TemperatureAvgF,TemperatureLowF,DewpointHighF,DewpointAvgF,DewpointLowF,HumidityHigh,HumidityAvg,HumidityLow,PressureMaxIn,PressureMinIn,WindSpeedMaxMPH,WindSpeedAvgMPH,GustSpeedMaxMPH,PrecipitationSumIn
2013-3-1,71.5,53.6,43.9,50.1,42.4,37.8,80,67,45,30.46,30.28,3,0,3,0.00
2013-3-2,73.8,60.3,48.2,53.0,48.0,42.1,82,65,45,30.29,30.10,4,0,4,0.00
2013-3-3,68.2,59.9,50.4,54.3,49.2,43.7,78,68,56,30.11,30.04,6,1,6,0.00
2013-3-4,66.1,54.4,45.9,52.7,46.3,39.8,86,75,61,30.18,30.06,6,1,6,0.00
2013-3-5,61.4,52.7,45.9,46.0,42.0,37.9,80,67,54,30.08,29.88,7,2,7,0.08
2013-3-6,61.7,52.8,47.9,45.6,41.7,37.2,86,67,44,30.11,29.88,10,2,10,0.19
2013-3-7,61.7,51.4,41.9,44.2,40.5,36.6,84,67,48,30.05,29.90,5,0,5,0.00
2013-3-8,67.5,52.4,41.4,43.7,39.7,34.7,80,64,33,30.06,29.85,7,1,7,0.00
2013-3-9,68.6,54.5,41.0,46.8,37.9,32.6,86,58,28,30.32,30.06,10,1,10,0.00
2013-3-10,66.8,54.1,41.6,49.5,40.8,32.4,77,62,45,30.41,30.29,6,1,6,0.00
2013-3-11,71.1,56.6,42.8,49.2,43.5,37.4,84,64,40,30.31,30.13,5,0,5,0.00
2013-3-12,74.5,60.1,45.9,51.7,46.7,40.4,84,63,42,30.21,30.10,5,0,5,0.00
2013-3-13,76.7,62.2,48.4,56.1,49.8,43.1,85,65,45,30.22,30.11,6,0,6,0.00
2013-3-14,79.4,64.0,50.8,56.9,51.0,45.5,84,65,43,30.19,30.11,4,0,4,0.00
2013-3-15,76.0,62.2,50.0,54.8,49.0,43.7,80,64,40,30.15,30.04,6,1,6,0.00
2013-3-16,76.0,61.6,47.7,51.8,46.3,37.6,85,61,28,30.11,30.01,7,1,7,0.00
2013-3-17,71.8,60.3,49.3,43.9,40.2,36.3,67,49,30,30.17,30.05,7,1,7,0.00
2013-3-18,72.0,58.6,44.6,47.2,42.4,38.1,80,57,37,30.15,30.05,5,1,5,0.00
2013-3-19,73.3,59.9,49.1,49.7,45.8,41.3,80,61,42,30.18,30.08,5,1,5,0.21
2013-3-20,65.2,57.8,51.7,57.4,51.9,46.4,89,81,74,30.16,30.11,6,1,6,0.36
2013-3-21,66.2,55.6,44.8,49.0,42.6,33.0,89,66,31,30.16,30.03,10,2,10,0.00
2013-3-22,65.2,58.2,45.9,32.6,28.1,22.2,51,33,22,30.13,30.05,14,4,14,0.00
2013-3-23,68.0,55.4,43.7,36.2,31.7,27.0,56,42,25,30.19,30.06,7,1,7,0.00
2013-3-24,73.3,58.3,43.2,44.4,39.3,34.8,75,52,31,30.13,29.98,4,0,4,0.00
2013-3-25,69.8,58.0,49.9,50.4,43.9,39.3,74,60,43,30.04,29.94,8,2,8,0.00
2013-3-26,71.5,58.7,47.0,50.8,45.2,40.5,80,62,44,30.03,29.94,6,1,7,0.00
2013-3-27,71.3,62.0,48.8,54.1,49.1,41.3,77,63,53,30.06,29.97,8,1,8,0.00
2013-3-28,72.0,62.0,54.9,55.5,51.3,47.8,81,69,51,30.13,30.06,4,1,4,0.00
2013-3-29,78.1,63.9,50.9,53.9,50.2,46.3,85,64,40,30.15,30.03,5,1,5,0.00
2013-3-30,76.9,64.0,53.3,56.9,51.2,46.8,81,65,46,30.08,30.00,6,1,6,0.00
2013-3-31,72.4,61.8,56.2,57.6,52.8,49.1,88,74,47,30.14,30.02,5,1,5,0.82